Time;durP1;ratioP1;P1;durP2;ratioP2;P2;SDS_P1;SDS_P2;PMS_P1;PMS_P2;Temp;Humidity;BMP_temperature;BMP_pressure;BME280_temperature;BME280_humidity;BME280_pressure;Samples;Min_cycle;Max_cycle;Signal;HPM_P1;HPM_P2
2022/09/22 00:01:55;;;;;;;;;;;;;;;18.59;58.07;101841.45;2355712;75;51416;-80
2022/09/22 00:04:57;;;;;;;;;;;;;;;18.57;58.14;101839.92;2272080;76;51086;-80
2022/09/22 00:08:00;;;;;;;;;;;;;;;18.59;58.02;101832.58;2289784;76;50251;-80
2022/09/22 00:11:03;;;;;;;;;;;;;;;18.58;57.97;101837.11;2290399;76;51628;-80
2022/09/22 00:14:06;;;;;;;;;;;;;;;18.57;58.02;101831.88;2315129;76;50510;-80
2022/09/22 00:17:08;;;;;;;;;;;;;;;18.57;57.98;101830.55;2289052;76;49605;-80
2022/09/22 00:20:11;;;;;;;;;;;;;;;18.56;58.05;101829.71;2299809;74;50632;-81
2022/09/22 00:23:12;;;;;;;;;;;;;;;18.57;58.02;101827.86;2381301;74;50762;-80
2022/09/22 00:26:15;;;;;;;;;;;;;;;18.55;58.05;101829.85;2406097;74;52333;-80
2022/09/22 00:29:16;;;;;;;;;;;;;;;18.56;57.99;101824.34;2382227;74;50073;-80
2022/09/22 00:32:18;;;;;;;;;;;;;;;18.53;58.05;101827.34;2382362;74;50240;-80
2022/09/22 00:35:20;;;;;;;;;;;;;;;18.57;57.99;101827.86;2382175;74;51963;-80
2022/09/22 00:38:21;;;;;;;;;;;;;;;18.56;57.95;101823.01;2407306;74;50944;-80
2022/09/22 00:41:27;;;;;;;;;;;;;;;18.56;57.96;101823.52;2354971;74;51092;-80
2022/09/22 00:44:30;;;;;;;;;;;;;;;18.53;58.01;101820.64;2407039;74;51467;-80
2022/09/22 00:47:36;;;;;;;;;;;;;;;18.56;57.85;101823.01;2406960;74;51547;-81
2022/09/22 00:50:38;;;;;;;;;;;;;;;18.55;57.91;101821.81;2376028;74;50268;-79
2022/09/22 00:53:39;;;;;;;;;;;;;;;18.53;57.97;101815.28;2288793;76;50045;-79
2022/09/22 00:56:49;;;;;;;;;;;;;;;18.56;57.85;101823.52;2313221;76;50223;-79
2022/09/22 00:59:50;;;;;;;;;;;;;;;18.54;57.88;101816.12;2310886;76;51597;-80
2022/09/22 01:02:54;;;;;;;;;;;;;;;18.53;57.96;101818.47;2313144;76;50627;-80
2022/09/22 01:05:54;;;;;;;;;;;;;;;;;;2286786;76;50610;-79
2022/09/22 01:08:56;;;;;;;;;;;;;;;18.53;57.82;101818.47;2312848;76;51468;-79
2022/09/22 01:11:58;;;;;;;;;;;;;;;18.54;57.78;101812.93;2312867;76;51553;-80
2022/09/22 01:15:10;;;;;;;;;;;;;;;18.52;57.85;101815.42;2287514;76;50541;-80
2022/09/22 01:18:13;;;;;;;;;;;;;;;18.52;57.79;101810.90;2313094;76;51634;-79
2022/09/22 01:21:23;;;;;;;;;;;;;;;18.48;57.88;101810.38;2329327;74;51436;-79
2022/09/22 01:24:32;;;;;;;;;;;;;;;18.52;57.82;101815.42;2393053;74;50700;-80
2022/09/22 01:27:35;;;;;;;;;;;;;;;18.53;57.75;101813.11;2382518;74;50023;-80
2022/09/22 01:30:38;;;;;;;;;;;;;;;18.52;57.66;101816.26;2382749;74;50101;-80
2022/09/22 01:33:50;;;;;;;;;;;;;;;18.53;57.62;101809.09;2406863;74;50292;-80
2022/09/22 01:36:53;;;;;;;;;;;;;;;18.52;57.61;101804.70;2407166;74;51459;-80
2022/09/22 01:39:56;;;;;;;;;;;;;;;18.49;57.77;101808.53;2406333;73;51516;-80
2022/09/22 01:42:59;;;;;;;;;;;;;;;18.50;57.72;101812.41;2383508;74;49652;-80
2022/09/22 01:46:01;;;;;;;;;;;;;;;18.50;57.67;101809.73;2404945;74;50233;-80
2022/09/22 01:49:06;;;;;;;;;;;;;;;18.50;57.59;101808.39;2406996;74;51431;-81
2022/09/22 01:52:09;;;;;;;;;;;;;;;18.49;57.63;101804.00;2350304;74;50815;-81
2022/09/22 01:55:16;;;;;;;;;;;;;;;18.50;57.63;101805.71;2325825;75;49340;-81
2022/09/22 01:58:19;;;;;;;;;;;;;;;18.48;57.66;101806.36;2354185;75;51202;-82
2022/09/22 02:01:22;;;;;;;;;;;;;;;18.49;57.61;101805.34;2355481;75;50681;-80
2022/09/22 02:04:34;;;;;;;;;;;;;;;18.49;57.59;101801.83;2355590;75;50778;-80
2022/09/22 02:07:37;;;;;;;;;;;;;;;18.49;57.57;101804.00;2329543;75;49637;-79
2022/09/22 02:10:40;;;;;;;;;;;;;;;18.49;57.54;101805.34;2354370;75;51631;-79
2022/09/22 02:13:42;;;;;;;;;;;;;;;18.48;57.56;101798.82;2353996;75;50293;-79
2022/09/22 02:16:44;;;;;;;;;;;;;;;18.49;57.51;101806.69;2355910;75;51517;-79
2022/09/22 02:19:46;;;;;;;;;;;;;;;18.48;57.51;101805.52;2327335;75;49573;-80
2022/09/22 02:22:47;;;;;;;;;;;;;;;18.48;57.45;101800.99;2328088;75;51567;-80
2022/09/22 02:25:49;;;;;;;;;;;;;;;18.47;57.52;101802.48;2356430;75;51530;-79
2022/09/22 02:28:51;;;;;;;;;;;;;;;18.48;57.45;101800.99;2329482;75;50263;-80
2022/09/22 02:31:53;;;;;;;;;;;;;;;18.48;57.42;101806.36;2328982;75;50116;-79
2022/09/22 02:34:54;;;;;;;;;;;;;;;18.48;57.41;101803.67;2356487;75;50719;-79
2022/09/22 02:38:14;;;;;;;;;;;;;;;18.48;57.37;101810.88;2357499;75;51534;-81
2022/09/22 02:41:20;;;;;;;;;;;;;;;18.48;57.32;101805.02;2356021;75;50766;-81
2022/09/22 02:44:23;;;;;;;;;;;;;;;18.46;57.45;101807.00;2328456;75;49770;-80
2022/09/22 02:47:31;;;;;;;;;;;;;;;18.46;57.41;101802.98;2355984;75;50701;-80
2022/09/22 02:50:32;;;;;;;;;;;;;;;18.47;57.34;101802.48;2356330;75;50641;-80
2022/09/22 02:53:34;;;;;;;;;;;;;;;18.47;57.32;101803.81;2316921;75;50740;-80
2022/09/22 02:56:36;;;;;;;;;;;;;;;18.45;57.47;101804.49;2253591;76;50994;-81
2022/09/22 02:59:37;;;;;;;;;;;;;;;18.47;57.29;101804.69;2338420;75;51482;-79
2022/09/22 03:02:39;;;;;;;;;;;;;;;18.44;57.40;101802.29;2328060;75;51499;-79
2022/09/22 03:05:40;;;;;;;;;;;;;;;18.45;57.42;101801.31;2354821;75;51414;-79
2022/09/22 03:08:42;;;;;;;;;;;;;;;18.43;57.43;101794.42;2329064;75;51003;-79
2022/09/22 03:11:43;;;;;;;;;;;;;;;18.45;57.23;101799.97;2328900;75;51419;-79
2022/09/22 03:14:45;;;;;;;;;;;;;;;18.46;57.22;101798.12;2354809;75;50639;-79
2022/09/22 03:17:47;;;;;;;;;;;;;;;18.43;57.39;101796.59;2328626;75;50227;-79
2022/09/22 03:20:48;;;;;;;;;;;;;;;18.43;57.33;101797.94;2293000;75;49503;-79
2022/09/22 03:23:50;;;;;;;;;;;;;;;18.45;57.20;101793.27;2354332;75;50704;-79
2022/09/22 03:26:51;;;;;;;;;;;;;;;18.44;57.30;101802.80;2356186;75;51555;-79
2022/09/22 03:29:54;;;;;;;;;;;;;;;18.43;57.39;101801.12;2329892;75;51598;-79
2022/09/22 03:32:55;;;;;;;;;;;;;;;18.42;57.38;101800.28;2329164;75;49449;-79
2022/09/22 03:35:57;;;;;;;;;;;;;;;18.43;57.32;101800.61;2349829;74;50401;-79
2022/09/22 03:38:58;;;;;;;;;;;;;;;18.43;57.27;101801.95;2351649;74;50764;-80
2022/09/22 03:42:00;;;;;;;;;;;;;;;18.43;57.26;101800.61;2316986;76;50238;-79
2022/09/22 03:45:03;;;;;;;;;;;;;;;18.43;57.29;101801.95;2289950;76;51347;-79
2022/09/22 03:48:04;;;;;;;;;;;;;;;18.42;57.33;101794.92;2315219;76;51524;-79
2022/09/22 03:51:06;;;;;;;;;;;;;;;18.44;57.13;101797.43;2317464;76;51464;-80
2022/09/22 03:54:08;;;;;;;;;;;;;;;18.41;57.23;101793.22;2315528;76;50063;-79
2022/09/22 03:57:09;;;;;;;;;;;;;;;18.41;57.33;101789.70;2289461;76;51422;-79
2022/09/22 04:00:12;;;;;;;;;;;;;;;18.43;57.12;101793.91;2314056;76;50318;-79
2022/09/22 04:03:14;;;;;;;;;;;;;;;18.42;57.19;101788.23;2315148;76;50675;-80
2022/09/22 04:06:16;;;;;;;;;;;;;;;18.42;57.14;101789.56;2333314;74;53531;-79
2022/09/22 04:09:17;;;;;;;;;;;;;;;18.42;57.12;101788.23;2311923;75;53771;-79
2022/09/22 04:12:19;;;;;;;;;;;;;;;18.41;57.12;101790.54;2308616;76;51557;-80
2022/09/22 04:15:20;;;;;;;;;;;;;;;18.42;57.06;101788.70;2332939;76;51559;-79
2022/09/22 04:18:22;;;;;;;;;;;;;;;18.42;57.14;101792.25;2333078;76;51558;-79
2022/09/22 04:21:24;;;;;;;;;;;;;;;18.41;57.18;101784.34;2280808;76;52848;-80
2022/09/22 04:24:25;;;;;;;;;;;;;;;18.40;57.16;101785.36;2308398;76;50398;-79
2022/09/22 04:27:27;;;;;;;;;;;;;;;18.39;57.18;101787.16;2308585;76;52245;-80
2022/09/22 04:30:28;;;;;;;;;;;;;;;18.41;57.04;101787.02;2333208;76;51639;-80
2022/09/22 04:33:30;;;;;;;;;;;;;;;18.40;57.05;101783.51;2283113;76;49526;-80
2022/09/22 04:36:32;;;;;;;;;;;;;;;18.41;56.92;101789.20;2318503;75;50352;-79
2022/09/22 04:39:33;;;;;;;;;;;;;;;18.41;56.99;101789.70;2363924;74;50718;-79
2022/09/22 04:42:35;;;;;;;;;;;;;;;18.40;57.11;101790.72;2406578;74;50251;-79
2022/09/22 04:45:36;;;;;;;;;;;;;;;18.36;57.93;101787.98;2383524;74;49386;-79
2022/09/22 04:48:38;;;;;;;;;;;;;;;18.32;57.80;101782.10;2407224;74;50751;-79
2022/09/22 04:51:40;;;;;;;;;;;;;;;18.31;57.72;101784.42;2407329;74;51517;-80
2022/09/22 04:54:41;;;;;;;;;;;;;;;18.32;57.58;101788.80;2381560;74;50632;-79
2022/09/22 04:57:44;;;;;;;;;;;;;;;18.36;58.35;101792.00;2383873;74;50979;-79
2022/09/22 05:00:46;;;;;;;;;;;;;;;18.38;59.54;101794.88;2404604;73;51538;-79
2022/09/22 05:03:47;;;;;;;;;;;;;;;18.40;58.17;101791.55;2382711;74;52295;-79
2022/09/22 05:06:49;;;;;;;;;;;;;;;18.41;59.02;101787.86;2378018;74;50267;-78
2022/09/22 05:09:51;;;;;;;;;;;;;;;18.40;58.85;101786.70;2310085;75;50923;-74
2022/09/22 05:12:52;;;;;;;;;;;;;;;18.39;59.10;101789.84;2329384;75;50697;-74
2022/09/22 05:15:54;;;;;;;;;;;;;;;18.41;59.39;101787.86;2328576;75;50094;-74
2022/09/22 05:18:56;;;;;;;;;;;;;;;18.41;59.42;101793.22;2356393;75;51622;-74
2022/09/22 05:21:58;;;;;;;;;;;;;;;18.41;59.21;101797.24;2303849;75;51519;-75
2022/09/22 05:24:59;;;;;;;;;;;;;;;18.43;59.01;101796.59;2328221;75;50723;-74
2022/09/22 05:28:01;;;;;;;;;;;;;;;18.42;59.42;101804.78;2328526;75;51523;-74
2022/09/22 05:31:03;;;;;;;;;;;;;;;18.43;59.56;101803.30;2308267;75;51458;-73
2022/09/22 05:34:05;;;;;;;;;;;;;;;18.47;59.82;101803.34;2253480;76;49641;-74
2022/09/22 05:37:06;;;;;;;;;;;;;;;18.51;59.78;101794.48;2330459;74;50398;-75
2022/09/22 05:40:08;;;;;;;;;;;;;;;18.47;59.84;101800.66;2326161;75;50714;-74
2022/09/22 05:43:10;;;;;;;;;;;;;;;18.45;59.37;101802.66;2346243;75;51541;-73
2022/09/22 05:46:12;;;;;;;;;;;;;;;18.45;59.39;101803.16;2290385;76;52441;-74
2022/09/22 05:49:13;;;;;;;;;;;;;;;18.46;59.73;101808.84;2290687;76;50385;-73
2022/09/22 05:52:15;;;;;;;;;;;;;;;18.46;59.59;101807.50;2313681;76;50393;-74
2022/09/22 05:55:16;;;;;;;;;;;;;;;18.45;59.74;101808.01;2314656;76;50750;-73
2022/09/22 05:58:18;;;;;;;;;;;;;;;18.48;59.78;101813.05;2353146;75;51475;-73
2022/09/22 06:01:20;;;;;;;;;;;;;;;18.56;59.43;101817.65;2328452;75;51208;-73
2022/09/22 06:04:21;;;;;;;;;;;;;;;18.62;59.34;101816.18;2355041;75;50356;-73
2022/09/22 06:07:25;;;;;;;;;;;;;;;18.66;59.12;101813.55;2331480;75;50371;-74
2022/09/22 06:10:27;;;;;;;;;;;;;;;18.76;58.66;101818.86;2336244;75;50330;-74
2022/09/22 06:13:29;;;;;;;;;;;;;;;18.83;58.57;101820.77;2348238;75;49423;-73
2022/09/22 06:16:30;;;;;;;;;;;;;;;18.86;58.50;101815.58;2317178;75;50160;-74
2022/09/22 06:19:32;;;;;;;;;;;;;;;18.88;58.39;101818.45;2346923;75;50759;-73
2022/09/22 06:22:35;;;;;;;;;;;;;;;18.91;58.40;101815.95;2317555;75;51525;-74
2022/09/22 06:25:37;;;;;;;;;;;;;;;18.92;58.39;101826.51;2293888;76;50127;-73
2022/09/22 06:28:39;;;;;;;;;;;;;;;18.92;58.37;101823.83;2339856;75;51524;-73
2022/09/22 06:31:40;;;;;;;;;;;;;;;18.94;58.40;101827.70;2337019;75;51593;-74
2022/09/22 06:34:44;;;;;;;;;;;;;;;18.93;58.43;101828.69;2353084;73;50758;-74
2022/09/22 06:37:46;;;;;;;;;;;;;;;18.94;58.46;101834.41;2355943;75;23084;-73
2022/09/22 06:40:48;;;;;;;;;;;;;;;18.95;58.51;101833.91;2349133;75;50680;-73
2022/09/22 06:43:52;;;;;;;;;;;;;;;18.93;58.53;101828.21;2344419;75;51543;-74
2022/09/22 06:46:53;;;;;;;;;;;;;;;18.95;58.50;101827.20;2339892;74;22463;-74
2022/09/22 06:49:54;;;;;;;;;;;;;;;18.96;58.41;101826.19;2302475;76;49543;-73
2022/09/22 06:53:00;;;;;;;;;;;;;;;19.01;58.26;101828.77;2315558;75;50446;-74
2022/09/22 06:56:05;;;;;;;;;;;;;;;19.06;58.09;101826.94;2331363;75;50971;-74
2022/09/22 06:59:09;;;;;;;;;;;;;;;19.08;58.03;101819.58;2355927;75;22376;-73
2022/09/22 07:02:09;;;;;;;;;;;;;;;19.10;57.96;101820.27;2353781;75;22656;-73
2022/09/22 07:05:11;;;;;;;;;;;;;;;19.11;57.93;101827.30;2336754;75;50298;-74
2022/09/22 07:08:12;;;;;;;;;;;;;;;19.12;57.88;101827.66;2353102;75;50741;-74
2022/09/22 07:11:16;;;;;;;;;;;;;;;19.13;57.84;101822.63;2353749;75;50807;-74
2022/09/22 07:14:21;;;;;;;;;;;;;;;19.14;57.77;101836.41;2342949;75;50179;-74
2022/09/22 07:17:22;;;;;;;;;;;;;;;19.15;57.71;101828.69;2299222;75;22741;-73
2022/09/22 07:20:24;;;;;;;;;;;;;;;19.15;57.68;101830.02;2353551;75;50261;-74
2022/09/22 07:23:25;;;;;;;;;;;;;;;19.15;57.62;101830.02;2350055;75;50693;-73
2022/09/22 07:26:28;;;;;;;;;;;;;;;19.15;57.56;101836.23;2295587;75;50684;-75
2022/09/22 07:29:31;;;;;;;;;;;;;;;19.15;57.56;101827.34;2349619;75;51538;-74
2022/09/22 07:32:34;;;;;;;;;;;;;;;19.16;57.51;101835.72;2352869;75;50359;-74
2022/09/22 07:35:36;;;;;;;;;;;;;;;19.17;57.44;101839.27;2330390;75;51593;-74
2022/09/22 07:38:38;;;;;;;;;;;;;;;19.17;57.41;101836.08;2354762;75;51770;-75
2022/09/22 07:41:42;;;;;;;;;;;;;;;19.17;57.38;101833.39;2329070;75;50747;-74
2022/09/22 07:51:24;;;;;;;;;;;;;;;19.14;57.33;101827.02;2287953;76;23535;-76
2022/09/22 07:54:26;;;;;;;;;;;;;;;19.14;57.34;101827.84;2287195;74;50117;-76
2022/09/22 07:57:31;;;;;;;;;;;;;;;19.12;57.37;101832.52;2355447;75;50408;-76
2022/09/22 08:00:35;;;;;;;;;;;;;;;19.11;57.36;101828.64;2355819;75;22398;-76
2022/09/22 08:03:36;;;;;;;;;;;;;;;19.10;57.39;101831.00;2355945;75;51194;-75
2022/09/22 08:06:39;;;;;;;;;;;;;;;19.09;57.36;101830.66;2352816;73;51587;-76
2022/09/22 08:09:40;;;;;;;;;;;;;;;19.06;57.36;101829.14;2353721;75;50272;-76
2022/09/22 08:12:42;;;;;;;;;;;;;;;19.07;57.36;101835.34;2355857;75;50339;-76
2022/09/22 08:15:44;;;;;;;;;;;;;;;19.07;57.31;101836.17;2324463;75;51059;-75
2022/09/22 08:18:47;;;;;;;;;;;;;;;19.05;57.29;101836.83;2294414;77;51612;-76
2022/09/22 08:21:50;;;;;;;;;;;;;;;19.04;57.26;101838.34;2294371;77;51608;-76
2022/09/22 08:24:52;;;;;;;;;;;;;;;19.05;57.20;101837.33;2294331;76;51577;-76
2022/09/22 08:27:53;;;;;;;;;;;;;;;19.03;57.16;101836.64;2271866;77;50994;-76
2022/09/22 08:30:55;;;;;;;;;;;;;;;19.02;57.10;101837.15;2348210;75;51475;-76
2022/09/22 08:33:56;;;;;;;;;;;;;;;19.05;57.04;101844.04;2327654;75;51015;-75
2022/09/22 08:36:58;;;;;;;;;;;;;;;18.99;57.10;101841.49;2354974;73;50384;-76
2022/09/22 08:40:00;;;;;;;;;;;;;;;19.01;56.97;101845.34;2355694;75;51052;-76
2022/09/22 08:43:03;;;;;;;;;;;;;;;19.01;56.97;101845.34;2355501;75;51527;-76
2022/09/22 08:46:04;;;;;;;;;;;;;;;19.00;57.00;101845.01;2343120;75;50278;-76
2022/09/22 08:52:40;;;;;;;;;;;;;;;19.02;56.81;101844.36;2355944;75;22376;-75
2022/09/22 08:55:43;;;;;;;;;;;;;;;19.02;56.79;101847.88;2328275;75;53091;-74
2022/09/22 08:58:46;;;;;;;;;;;;;;;19.01;56.75;101848.02;2309885;75;51478;-75
2022/09/22 09:01:51;;;;;;;;;;;;;;;19.00;56.77;101843.67;2307799;75;51620;-75
2022/09/22 09:04:54;;;;;;;;;;;;;;;19.00;56.74;101837.80;2327941;73;51291;-74
2022/09/22 09:08:10;;;;;;;;;;;;;;;18.95;58.03;101838.77;2355074;75;50424;-74
2022/09/22 09:11:13;;;;;;;;;;;;;;;18.97;58.90;101838.12;2351278;75;51651;-74
2022/09/22 09:14:25;;;;;;;;;;;;;;;18.98;57.90;101831.73;2345383;75;50753;-74
2022/09/22 09:17:29;;;;;;;;;;;;;;;19.00;57.92;101837.80;2292918;76;51841;-75
2022/09/22 09:20:34;;;;;;;;;;;;;;;18.96;58.70;101837.78;2316943;75;51599;-75
2022/09/22 09:23:39;;;;;;;;;;;;;;;18.97;58.02;101833.26;2343559;75;51586;-75
2022/09/22 09:26:41;;;;;;;;;;;;;;;18.97;57.77;101833.26;2325266;76;50442;-75
2022/09/22 09:29:44;;;;;;;;;;;;;;;19.00;57.66;101834.28;2290017;76;51752;-76
2022/09/22 09:32:56;;;;;;;;;;;;;;;18.97;57.59;101829.23;2312538;75;50740;-75
2022/09/22 09:35:57;;;;;;;;;;;;;;;18.98;57.47;101829.56;2314388;76;51506;-76
2022/09/22 09:38:59;;;;;;;;;;;;;;;18.99;57.43;101832.61;2316565;76;50737;-76
2022/09/22 09:42:01;;;;;;;;;;;;;;;19.00;57.42;101836.96;2289526;76;50245;-77
2022/09/22 09:45:03;;;;;;;;;;;;;;;18.99;57.34;101832.61;2315221;76;50075;-76
2022/09/22 09:48:06;;;;;;;;;;;;;;;18.99;57.33;101832.61;2314466;76;51620;-76
2022/09/22 09:51:11;;;;;;;;;;;;;;;19.00;57.26;101832.94;2313709;76;51523;-76
2022/09/22 09:54:13;;;;;;;;;;;;;;;18.98;57.29;101829.56;2289029;76;50078;-76
2022/09/22 09:57:15;;;;;;;;;;;;;;;18.96;57.28;101823.51;2313798;76;50249;-76
2022/09/22 10:00:33;;;;;;;;;;;;;;;18.97;57.24;101826.55;2316530;76;51561;-76
2022/09/22 10:03:35;;;;;;;;;;;;;;;18.98;57.17;101826.87;2314143;76;51629;-76
2022/09/22 10:06:37;;;;;;;;;;;;;;;18.98;57.13;101824.20;2289590;76;49654;-76
2022/09/22 10:09:38;;;;;;;;;;;;;;;18.97;57.08;101821.19;2313721;76;50736;-76
2022/09/22 10:12:40;;;;;;;;;;;;;;;18.96;57.07;101825.72;2318693;75;50304;-75
2022/09/22 10:15:42;;;;;;;;;;;;;;;18.94;57.07;101816.98;2355705;75;49587;-75
2022/09/22 10:18:43;;;;;;;;;;;;;;;18.95;57.07;101819.16;2329699;75;50346;-75
2022/09/22 10:21:45;;;;;;;;;;;;;;;18.97;56.97;101823.36;2360434;75;50375;-75
2022/09/22 10:24:54;;;;;;;;;;;;;;;18.97;56.96;101819.84;2354847;73;50706;-76
2022/09/22 10:28:02;;;;;;;;;;;;;;;18.99;56.90;101820.54;2353727;73;51529;-76
2022/09/22 10:31:04;;;;;;;;;;;;;;;18.98;56.88;101816.16;2329841;75;51355;-75
2022/09/22 10:34:06;;;;;;;;;;;;;;;18.99;56.87;101817.86;2355940;75;50708;-75
2022/09/22 10:37:09;;;;;;;;;;;;;;;18.98;56.86;101818.33;2354288;74;50453;-76
2022/09/22 10:40:12;;;;;;;;;;;;;;;18.98;56.86;101815.65;2323180;75;50771;-76
2022/09/22 10:43:21;;;;;;;;;;;;;;;18.97;56.87;101811.80;2294480;75;52539;-75
2022/09/22 10:46:40;;;;;;;;;;;;;;;18.97;56.86;101808.61;2395819;74;51753;-75
2022/09/22 10:49:58;;;;;;;;;;;;;;;18.97;56.88;101811.30;2328657;76;50737;-75
2022/09/22 10:53:06;;;;;;;;;;;;;;;18.95;56.94;101816.47;2276094;78;52074;-76
2022/09/22 10:56:12;;;;;;;;;;;;;;;18.97;56.90;101811.80;2250121;78;51103;-76
2022/09/22 10:59:33;;;;;;;;;;;;;;;18.95;56.92;101812.45;2275320;78;50407;-76
2022/09/22 11:02:45;;;;;;;;;;;;;;;18.95;56.87;101813.28;2274546;78;53508;-76
2022/09/22 11:12:49;;;;;;;;;;;;;;;18.91;56.97;101808.75;2275368;78;22540;-75
2022/09/22 11:15:56;;;;;;;;;;;;;;;18.90;56.98;101805.70;2273363;77;50646;-76
2022/09/22 11:19:03;;;;;;;;;;;;;;;18.89;56.98;101801.35;2272325;78;50420;-76
2022/09/22 11:22:06;;;;;;;;;;;;;;;18.90;56.99;101796.31;2248447;78;49607;-75
2022/09/22 11:25:25;;;;;;;;;;;;;;;18.91;56.99;101798.52;2327138;75;51591;-76
2022/09/22 11:28:44;;;;;;;;;;;;;;;18.91;56.95;101788.63;2257404;78;51622;-75
2022/09/22 11:31:48;;;;;;;;;;;;;;;18.91;56.95;101794.00;2331925;76;50258;-75
2022/09/22 11:35:04;;;;;;;;;;;;;;;18.91;56.96;101782.44;2272051;76;53007;-75
2022/09/22 11:38:08;;;;;;;;;;;;;;;18.91;56.96;101785.11;2331947;76;50793;-75
2022/09/22 11:41:14;;;;;;;;;;;;;;;18.90;56.96;101780.22;2329638;74;50359;-75
2022/09/22 11:44:20;;;;;;;;;;;;;;;18.88;57.10;101774.67;2315247;76;50684;-75
2022/09/22 11:47:27;;;;;;;;;;;;;;;18.85;57.21;101768.30;2290378;76;51946;-75
2022/09/22 11:50:38;;;;;;;;;;;;;;;18.85;57.28;101768.30;2315528;75;50620;-76
2022/09/22 11:53:44;;;;;;;;;;;;;;;18.83;57.34;101772.49;2315867;76;51581;-75
2022/09/22 11:56:47;;;;;;;;;;;;;;;18.82;57.40;101764.09;2314894;76;51652;-75
2022/09/22 12:00:06;;;;;;;;;;;;;;;18.84;57.48;101767.46;2289353;76;50980;-75
2022/09/22 12:03:10;;;;;;;;;;;;;;;18.85;57.35;101771.81;2314337;76;50406;-75
2022/09/22 12:06:12;;;;;;;;;;;;;;;18.87;57.39;101760.94;2314664;76;51525;-75
2022/09/22 12:09:15;;;;;;;;;;;;;;;18.87;57.40;101767.64;2323148;74;51584;-76
2022/09/22 12:12:17;;;;;;;;;;;;;;;18.82;57.46;101755.20;2338584;73;50810;-75
2022/09/22 12:15:23;;;;;;;;;;;;;;;18.81;57.58;101746.33;2314693;76;50810;-75
2022/09/22 12:18:27;;;;;;;;;;;;;;;18.81;57.59;101756.22;2314721;76;50278;-75
2022/09/22 12:21:33;;;;;;;;;;;;;;;18.81;57.58;101746.33;2314094;76;51586;-75
2022/09/22 12:24:34;;;;;;;;;;;;;;;18.81;57.60;101746.33;2289430;76;50949;-75
2022/09/22 12:27:36;;;;;;;;;;;;;;;18.83;57.41;101743.47;2315315;76;50221;-75
2022/09/22 12:30:39;;;;;;;;;;;;;;;18.87;57.15;101744.34;2314194;76;50229;-76
2022/09/22 12:33:51;;;;;;;;;;;;;;;18.87;57.21;101735.46;2315555;76;51620;-73
2022/09/22 12:36:54;;;;;;;;;;;;;;;18.86;57.08;101730.61;2313422;76;50118;-74
2022/09/22 12:39:56;;;;;;;;;;;;;;;18.85;57.29;101734.27;2315221;75;52395;-74
2022/09/22 12:42:58;;;;;;;;;;;;;;;18.84;57.50;101733.94;2295415;76;50463;-74
2022/09/22 12:46:01;;;;;;;;;;;;;;;18.83;57.47;101732.27;2343481;75;50273;-75
2022/09/22 12:49:04;;;;;;;;;;;;;;;18.87;57.25;101731.44;2271561;77;49676;-76
2022/09/22 12:52:07;;;;;;;;;;;;;;;18.88;57.58;101729.09;2294725;76;50457;-75
2022/09/22 12:55:14;;;;;;;;;;;;;;;18.87;57.65;101720.20;2291476;77;50385;-76
2022/09/22 12:58:22;;;;;;;;;;;;;;;18.84;57.70;101730.42;2294956;77;50928;-77
2022/09/22 13:01:27;;;;;;;;;;;;;;;18.80;57.79;101721.84;2295208;77;22377;-77
2022/09/22 13:04:29;;;;;;;;;;;;;;;18.82;57.66;101719.84;2295095;77;51550;-75
2022/09/22 13:07:32;;;;;;;;;;;;;;;18.85;57.61;101717.34;2306049;75;51439;-75
2022/09/22 13:10:35;;;;;;;;;;;;;;;18.87;57.52;101716.19;2312981;75;51640;-75
2022/09/22 13:13:38;;;;;;;;;;;;;;;18.90;57.50;101715.03;2290119;76;50165;-76
2022/09/22 13:16:39;;;;;;;;;;;;;;;18.90;57.58;101716.37;2315667;76;51460;-76
2022/09/22 13:19:42;;;;;;;;;;;;;;;18.91;57.54;101716.73;2290765;76;50376;-76
2022/09/22 13:22:44;;;;;;;;;;;;;;;18.91;57.52;101720.24;2312524;76;50477;-75
2022/09/22 13:25:46;;;;;;;;;;;;;;;18.92;57.59;101709.02;2290492;76;50993;-75
2022/09/22 13:29:00;;;;;;;;;;;;;;;18.92;57.61;101715.72;2290390;76;50093;-76
2022/09/22 13:32:02;;;;;;;;;;;;;;;18.92;57.63;101709.84;2313191;76;51516;-76
2022/09/22 13:35:03;;;;;;;;;;;;;;;18.93;57.73;101706.18;2289905;76;51506;-75
2022/09/22 13:38:06;;;;;;;;;;;;;;;18.95;57.67;101706.51;2284107;74;50986;-75
2022/09/22 13:41:15;;;;;;;;;;;;;;;18.95;57.77;101701.98;2320118;76;50825;-76
2022/09/22 13:44:18;;;;;;;;;;;;;;;18.97;57.73;101699.15;2315206;76;51422;-77
2022/09/22 13:47:23;;;;;;;;;;;;;;;18.99;57.77;101699.84;2314031;75;50743;-75
2022/09/22 13:50:25;;;;;;;;;;;;;;;18.98;57.81;101692.27;2289594;76;51008;-75
2022/09/22 13:53:26;;;;;;;;;;;;;;;19.00;57.82;101690.78;2289016;76;50041;-75
2022/09/22 13:56:28;;;;;;;;;;;;;;;19.00;57.93;101686.75;2315884;76;50687;-76
2022/09/22 13:59:31;;;;;;;;;;;;;;;19.02;57.90;101683.42;2315552;76;50309;-76
2022/09/22 14:02:33;;;;;;;;;;;;;;;19.02;57.97;101684.25;2289907;76;51469;-76
2022/09/22 14:05:34;;;;;;;;;;;;;;;19.05;57.93;101679.06;2314792;76;50373;-77
2022/09/22 14:08:36;;;;;;;;;;;;;;;19.05;57.93;101684.43;2339244;75;50760;-77
2022/09/22 14:11:38;;;;;;;;;;;;;;;19.04;57.87;101674.72;2301539;75;51373;-76
2022/09/22 14:14:39;;;;;;;;;;;;;;;19.03;57.86;101681.89;2274085;75;50109;-77
2022/09/22 14:17:41;;;;;;;;;;;;;;;19.06;57.74;101671.34;2359355;74;50269;-77
2022/09/22 14:20:43;;;;;;;;;;;;;;;19.07;57.62;101662.31;2336134;74;50722;-77
2022/09/22 14:23:45;;;;;;;;;;;;;;;19.07;57.69;101669.02;2336118;75;50448;-77
2022/09/22 14:26:48;;;;;;;;;;;;;;;19.09;57.72;101668.37;2274093;77;50796;-77
2022/09/22 14:29:51;;;;;;;;;;;;;;;19.08;57.80;101661.30;2295424;77;51482;-77
2022/09/22 14:32:56;;;;;;;;;;;;;;;19.08;58.06;101655.94;2295477;77;51643;-78
2022/09/22 14:36:01;;;;;;;;;;;;;;;19.10;58.33;101656.63;2295065;77;50684;-77
2022/09/22 14:39:03;;;;;;;;;;;;;;;19.10;58.34;101653.94;2275606;75;51366;-77
2022/09/22 14:42:09;;;;;;;;;;;;;;;19.12;58.20;101654.12;2313759;75;50390;-77
2022/09/22 14:45:12;;;;;;;;;;;;;;;19.13;58.25;101662.49;2295001;77;52468;-77
2022/09/22 14:48:17;;;;;;;;;;;;;;;19.13;58.38;101653.61;2295037;76;51540;-77
2022/09/22 14:51:20;;;;;;;;;;;;;;;19.16;59.04;101659.98;2247033;77;51027;-78
2022/09/22 14:54:21;;;;;;;;;;;;;;;19.22;58.97;101647.28;2294677;77;50412;-77
2022/09/22 14:57:23;;;;;;;;;;;;;;;19.24;59.09;101641.26;2294683;77;50346;-77
2022/09/22 15:03:45;;;;;;;;;;;;;;;19.27;59.61;101641.43;2313199;76;22362;-78
2022/09/22 15:06:47;;;;;;;;;;;;;;;19.30;59.67;101645.12;2312675;76;51560;-78
2022/09/22 15:09:51;;;;;;;;;;;;;;;19.29;59.82;101640.27;2314495;76;50661;-77
2022/09/22 15:12:52;;;;;;;;;;;;;;;19.31;60.14;101646.80;2314101;76;50177;-75
2022/09/22 15:15:54;;;;;;;;;;;;;;;19.30;60.27;101644.62;2289130;76;49616;-76
2022/09/22 15:18:55;;;;;;;;;;;;;;;19.30;60.40;101643.78;2314726;76;50414;-76
2022/09/22 15:21:57;;;;;;;;;;;;;;;19.32;60.28;101643.13;2289559;76;50203;-76
2022/09/22 15:24:58;;;;;;;;;;;;;;;19.32;60.40;101637.76;2314736;76;51548;-77
2022/09/22 15:28:05;;;;;;;;;;;;;;;19.34;60.25;101643.30;2288897;76;50097;-77
2022/09/22 15:31:03;;;;;;;;;;;;;;;19.39;60.37;101633.89;2290296;76;22374;-76
2022/09/22 15:34:06;;;;;;;;;;;;;;;19.40;60.30;101635.59;2314873;76;51398;-77
2022/09/22 15:37:10;;;;;;;;;;;;;;;19.43;60.40;101627.20;2315395;76;50670;-73
2022/09/22 15:40:15;;;;;;;;;;;;;;;19.47;60.33;101627.20;2289571;76;50092;-76
2022/09/22 15:43:20;;;;;;;;;;;;;;;19.44;60.24;101626.19;2314694;76;23072;-74
2022/09/22 15:46:27;;;;;;;;;;;;;;;19.44;60.44;101628.88;2308319;75;51534;-76
2022/09/22 15:49:28;;;;;;;;;;;;;;;19.44;60.52;101627.03;2354510;75;51480;-75
2022/09/22 15:52:30;;;;;;;;;;;;;;;19.45;60.72;101635.95;2328734;75;52491;-77
2022/09/22 15:55:31;;;;;;;;;;;;;;;19.50;60.88;101629.58;2327808;75;50339;-74
2022/09/22 15:58:34;;;;;;;;;;;;;;;19.53;60.96;101622.53;2329376;75;50470;-75
2022/09/22 16:01:35;;;;;;;;;;;;;;;19.60;61.41;101623.55;2354281;75;51537;-75
2022/09/22 16:04:38;;;;;;;;;;;;;;;19.59;61.36;101627.22;2301927;75;52247;-74